sensor_id;sensor_type;location;lat;lon;timestamp;pressure;altitude;pressure_sealevel;temperature;humidity
75051;BME280;63628;47.656;11.310;2022-12-29T00:00:18;94744.44;;;2.10;80.14
75051;BME280;63628;47.656;11.310;2022-12-29T00:02:44;94739.13;;;3.12;85.67
75051;BME280;63628;47.656;11.310;2022-12-29T00:05:11;94739.75;;;3.35;84.92
75051;BME280;63628;47.656;11.310;2022-12-29T00:07:38;94743.44;;;1.30;75.85
75051;BME280;63628;47.656;11.310;2022-12-29T00:10:05;94728.41;;;2.64;82.19
75051;BME280;63628;47.656;11.310;2022-12-29T00:12:33;94742.94;;;-0.44;77.45
75051;BME280;63628;47.656;11.310;2022-12-29T00:15:19;94729.34;;;2.78;87.19
75051;BME280;63628;47.656;11.310;2022-12-29T00:18:04;94725.97;;;1.53;73.29
75051;BME280;63628;47.656;11.310;2022-12-29T00:20:33;94721.19;;;3.09;86.11
75051;BME280;63628;47.656;11.310;2022-12-29T00:23:18;94732.03;;;0.08;79.60
75051;BME280;63628;47.656;11.310;2022-12-29T00:26:10;94712.00;;;2.92;86.79
75051;BME280;63628;47.656;11.310;2022-12-29T00:29:09;94724.28;;;0.31;74.82
75051;BME280;63628;47.656;11.310;2022-12-29T00:31:54;94710.44;;;2.40;88.05
75051;BME280;63628;47.656;11.310;2022-12-29T00:34:40;94701.16;;;1.57;75.11
75051;BME280;63628;47.656;11.310;2022-12-29T00:37:25;94696.09;;;2.50;87.32
75051;BME280;63628;47.656;11.310;2022-12-29T00:40:12;94699.88;;;2.48;79.54
75051;BME280;63628;47.656;11.310;2022-12-29T00:42:57;94706.78;;;0.93;82.36
75051;BME280;63628;47.656;11.310;2022-12-29T00:45:44;94701.53;;;2.70;86.85
75051;BME280;63628;47.656;11.310;2022-12-29T00:48:11;94707.25;;;1.94;83.92
75051;BME280;63628;47.656;11.310;2022-12-29T00:50:38;94702.28;;;3.07;85.89
75051;BME280;63628;47.656;11.310;2022-12-29T00:53:04;94702.13;;;3.15;84.96
75051;BME280;63628;47.656;11.310;2022-12-29T00:55:31;94703.16;;;1.99;77.04
75051;BME280;63628;47.656;11.310;2022-12-29T00:57:57;94711.53;;;-0.26;75.31
75051;BME280;63628;47.656;11.310;2022-12-29T01:00:24;94697.00;;;2.43;88.09
75051;BME280;63628;47.656;11.310;2022-12-29T01:02:52;94702.06;;;2.08;79.54
75051;BME280;63628;47.656;11.310;2022-12-29T01:05:19;94700.03;;;2.61;85.85
75051;BME280;63628;47.656;11.310;2022-12-29T01:07:46;94700.78;;;2.98;85.23
75051;BME280;63628;47.656;11.310;2022-12-29T01:10:12;94705.81;;;2.99;85.01
75051;BME280;63628;47.656;11.310;2022-12-29T01:12:41;94712.78;;;3.13;85.25
75051;BME280;63628;47.656;11.310;2022-12-29T01:15:10;94718.16;;;3.27;84.98
75051;BME280;63628;47.656;11.310;2022-12-29T01:17:37;94729.75;;;1.80;74.17
75051;BME280;63628;47.656;11.310;2022-12-29T01:20:06;94723.06;;;2.36;86.03
75051;BME280;63628;47.656;11.310;2022-12-29T01:22:32;94725.09;;;1.23;74.55
75051;BME280;63628;47.656;11.310;2022-12-29T01:24:59;94717.91;;;2.43;85.92
75051;BME280;63628;47.656;11.310;2022-12-29T01:27:26;94705.69;;;3.07;85.41
75051;BME280;63628;47.656;11.310;2022-12-29T01:29:52;94716.72;;;2.09;78.18
75051;BME280;63628;47.656;11.310;2022-12-29T01:32:19;94723.31;;;2.99;85.10
75051;BME280;63628;47.656;11.310;2022-12-29T01:34:45;94727.28;;;3.16;84.98
75051;BME280;63628;47.656;11.310;2022-12-29T01:37:13;94728.53;;;3.20;85.05
75051;BME280;63628;47.656;11.310;2022-12-29T01:39:40;94733.34;;;2.23;81.96
75051;BME280;63628;47.656;11.310;2022-12-29T01:42:12;94724.81;;;3.08;85.46
75051;BME280;63628;47.656;11.310;2022-12-29T01:45:02;94732.53;;;1.11;86.25
75051;BME280;63628;47.656;11.310;2022-12-29T01:47:32;94728.34;;;2.43;86.64
75051;BME280;63628;47.656;11.310;2022-12-29T01:50:05;94729.97;;;3.01;85.63
75051;BME280;63628;47.656;11.310;2022-12-29T01:52:38;94726.00;;;0.92;73.44
75051;BME280;63628;47.656;11.310;2022-12-29T01:55:08;94727.25;;;-0.99;79.22
75051;BME280;63628;47.656;11.310;2022-12-29T01:57:38;94713.44;;;2.22;88.36
75051;BME280;63628;47.656;11.310;2022-12-29T02:00:08;94728.97;;;0.67;76.38
75051;BME280;63628;47.656;11.310;2022-12-29T02:02:36;94734.84;;;-0.10;82.75
75051;BME280;63628;47.656;11.310;2022-12-29T02:05:08;94732.44;;;-1.23;79.83
75051;BME280;63628;47.656;11.310;2022-12-29T02:07:39;94718.16;;;0.78;88.70
75051;BME280;63628;47.656;11.310;2022-12-29T02:10:06;94714.94;;;0.45;81.69
75051;BME280;63628;47.656;11.310;2022-12-29T02:12:33;94709.81;;;2.38;87.55
75051;BME280;63628;47.656;11.310;2022-12-29T02:15:01;94701.84;;;2.61;86.54
75051;BME280;63628;47.656;11.310;2022-12-29T02:17:41;94699.44;;;2.80;85.82
75051;BME280;63628;47.656;11.310;2022-12-29T02:20:33;94708.63;;;-0.31;75.76
75051;BME280;63628;47.656;11.310;2022-12-29T02:23:24;94691.00;;;1.77;88.47
75051;BME280;63628;47.656;11.310;2022-12-29T02:26:12;94695.84;;;2.45;86.08
75051;BME280;63628;47.656;11.310;2022-12-29T02:28:56;94694.63;;;2.63;86.28
75051;BME280;63628;47.656;11.310;2022-12-29T02:31:31;94700.03;;;0.84;75.38
75051;BME280;63628;47.656;11.310;2022-12-29T02:34:14;94699.38;;;0.06;84.37
75051;BME280;63628;47.656;11.310;2022-12-29T02:36:56;94691.44;;;2.10;86.99
75051;BME280;63628;47.656;11.310;2022-12-29T02:39:28;94685.66;;;0.88;76.52
75051;BME280;63628;47.656;11.310;2022-12-29T02:42:06;94686.84;;;1.68;86.84
75051;BME280;63628;47.656;11.310;2022-12-29T02:44:42;94688.94;;;2.59;86.30
75051;BME280;63628;47.656;11.310;2022-12-29T02:47:16;94681.13;;;2.59;86.11
75051;BME280;63628;47.656;11.310;2022-12-29T02:49:51;94681.81;;;2.68;85.94
75051;BME280;63628;47.656;11.310;2022-12-29T02:52:26;94687.69;;;0.55;77.74
75051;BME280;63628;47.656;11.310;2022-12-29T02:54:54;94691.44;;;2.46;86.73
75051;BME280;63628;47.656;11.310;2022-12-29T02:57:32;94689.97;;;2.79;85.71
75051;BME280;63628;47.656;11.310;2022-12-29T03:00:03;94687.03;;;1.51;76.13
75051;BME280;63628;47.656;11.310;2022-12-29T03:02:40;94695.59;;;-0.23;79.86
75051;BME280;63628;47.656;11.310;2022-12-29T03:05:18;94685.25;;;1.67;87.88
75051;BME280;63628;47.656;11.310;2022-12-29T03:07:57;94677.94;;;2.06;84.78
75051;BME280;63628;47.656;11.310;2022-12-29T03:10:37;94684.00;;;1.10;82.48
75051;BME280;63628;47.656;11.310;2022-12-29T03:13:14;94677.78;;;0.97;83.63
75051;BME280;63628;47.656;11.310;2022-12-29T03:16:10;94680.78;;;2.47;86.18
75051;BME280;63628;47.656;11.310;2022-12-29T03:18:47;94673.28;;;2.02;79.99
75051;BME280;63628;47.656;11.310;2022-12-29T03:21:20;94675.91;;;2.23;86.33
75051;BME280;63628;47.656;11.310;2022-12-29T03:24:11;94680.75;;;1.31;77.76
75051;BME280;63628;47.656;11.310;2022-12-29T03:26:39;94676.16;;;1.33;79.55
75051;BME280;63628;47.656;11.310;2022-12-29T03:29:07;94675.75;;;0.69;79.93
75051;BME280;63628;47.656;11.310;2022-12-29T03:31:35;94677.97;;;1.47;86.77
75051;BME280;63628;47.656;11.310;2022-12-29T03:34:05;94673.25;;;2.38;86.64
75051;BME280;63628;47.656;11.310;2022-12-29T03:36:35;94669.41;;;2.55;86.04
75051;BME280;63628;47.656;11.310;2022-12-29T03:39:08;94670.56;;;0.61;77.68
75051;BME280;63628;47.656;11.310;2022-12-29T03:41:36;94677.25;;;1.68;86.95
75051;BME280;63628;47.656;11.310;2022-12-29T03:44:05;94676.97;;;1.34;80.83
75051;BME280;63628;47.656;11.310;2022-12-29T03:46:32;94678.84;;;1.84;87.32
75051;BME280;63628;47.656;11.310;2022-12-29T03:48:59;94684.09;;;2.56;86.43
75051;BME280;63628;47.656;11.310;2022-12-29T03:51:27;94666.53;;;2.65;85.73
75051;BME280;63628;47.656;11.310;2022-12-29T03:53:54;94685.50;;;0.44;79.14
75051;BME280;63628;47.656;11.310;2022-12-29T03:56:20;94677.22;;;2.12;87.35
75051;BME280;63628;47.656;11.310;2022-12-29T03:58:47;94676.69;;;2.60;86.43
75051;BME280;63628;47.656;11.310;2022-12-29T04:01:13;94673.00;;;1.52;79.68
75051;BME280;63628;47.656;11.310;2022-12-29T04:03:40;94682.44;;;0.86;78.63
75051;BME280;63628;47.656;11.310;2022-12-29T04:06:07;94679.41;;;1.50;85.52
75051;BME280;63628;47.656;11.310;2022-12-29T04:08:35;94675.63;;;2.33;86.86
75051;BME280;63628;47.656;11.310;2022-12-29T04:11:02;94679.81;;;0.41;77.73
75051;BME280;63628;47.656;11.310;2022-12-29T04:13:28;94661.91;;;1.95;87.17
75051;BME280;63628;47.656;11.310;2022-12-29T04:15:55;94666.69;;;0.80;77.89
75051;BME280;63628;47.656;11.310;2022-12-29T04:18:21;94659.84;;;1.90;83.93
75051;BME280;63628;47.656;11.310;2022-12-29T04:20:48;94658.47;;;2.45;86.30
75051;BME280;63628;47.656;11.310;2022-12-29T04:23:27;94662.69;;;1.59;78.60
75051;BME280;63628;47.656;11.310;2022-12-29T04:25:55;94674.22;;;0.29;82.84
75051;BME280;63628;47.656;11.310;2022-12-29T04:28:22;94660.75;;;2.33;87.12
75051;BME280;63628;47.656;11.310;2022-12-29T04:30:48;94656.09;;;2.50;86.06
75051;BME280;63628;47.656;11.310;2022-12-29T04:33:15;94654.50;;;1.47;77.87
75051;BME280;63628;47.656;11.310;2022-12-29T04:35:44;94658.50;;;0.68;78.88
75051;BME280;63628;47.656;11.310;2022-12-29T04:38:11;94653.00;;;2.40;86.59
75051;BME280;63628;47.656;11.310;2022-12-29T04:40:40;94656.78;;;1.13;77.50
75051;BME280;63628;47.656;11.310;2022-12-29T04:43:09;94655.59;;;0.40;79.03
75051;BME280;63628;47.656;11.310;2022-12-29T04:45:37;94662.34;;;0.95;81.70
75051;BME280;63628;47.656;11.310;2022-12-29T04:48:04;94656.28;;;2.27;86.57
75051;BME280;63628;47.656;11.310;2022-12-29T04:50:31;94664.06;;;0.11;82.07
75051;BME280;63628;47.656;11.310;2022-12-29T04:52:57;94655.81;;;1.73;87.80
75051;BME280;63628;47.656;11.310;2022-12-29T04:55:24;94645.84;;;1.76;85.23
75051;BME280;63628;47.656;11.310;2022-12-29T04:57:50;94631.94;;;2.41;86.39
75051;BME280;63628;47.656;11.310;2022-12-29T05:00:19;94635.28;;;2.57;85.43
75051;BME280;63628;47.656;11.310;2022-12-29T05:02:45;94641.34;;;0.74;79.47
75051;BME280;63628;47.656;11.310;2022-12-29T05:05:12;94633.34;;;1.27;79.78
75051;BME280;63628;47.656;11.310;2022-12-29T05:07:39;94628.06;;;0.46;82.28
75051;BME280;63628;47.656;11.310;2022-12-29T05:10:07;94632.97;;;2.26;86.53
75051;BME280;63628;47.656;11.310;2022-12-29T05:12:36;94629.25;;;2.35;85.09
75051;BME280;63628;47.656;11.310;2022-12-29T05:15:04;94630.00;;;2.29;85.25
75051;BME280;63628;47.656;11.310;2022-12-29T05:17:32;94641.22;;;1.93;84.00
75051;BME280;63628;47.656;11.310;2022-12-29T05:19:59;94644.88;;;0.58;80.91
75051;BME280;63628;47.656;11.310;2022-12-29T05:22:26;94647.75;;;0.86;81.61
75051;BME280;63628;47.656;11.310;2022-12-29T05:24:52;94633.97;;;1.74;83.73
75051;BME280;63628;47.656;11.310;2022-12-29T05:27:19;94616.38;;;1.32;77.05
75051;BME280;63628;47.656;11.310;2022-12-29T05:29:45;94615.81;;;2.38;85.27
75051;BME280;63628;47.656;11.310;2022-12-29T05:32:12;94624.72;;;2.43;84.66
75051;BME280;63628;47.656;11.310;2022-12-29T05:34:41;94616.75;;;2.51;85.68
75051;BME280;63628;47.656;11.310;2022-12-29T05:37:08;94615.81;;;2.59;85.27
75051;BME280;63628;47.656;11.310;2022-12-29T05:39:34;94614.78;;;1.31;84.10
75051;BME280;63628;47.656;11.310;2022-12-29T05:42:01;94599.38;;;1.50;78.22
75051;BME280;63628;47.656;11.310;2022-12-29T05:44:27;94601.53;;;2.12;84.70
75051;BME280;63628;47.656;11.310;2022-12-29T05:46:54;94598.66;;;2.07;72.69
75051;BME280;63628;47.656;11.310;2022-12-29T05:49:21;94600.84;;;1.38;77.13
75051;BME280;63628;47.656;11.310;2022-12-29T05:51:48;94607.22;;;1.86;79.39
75051;BME280;63628;47.656;11.310;2022-12-29T05:54:15;94619.84;;;2.19;84.21
75051;BME280;63628;47.656;11.310;2022-12-29T05:56:42;94618.63;;;2.15;76.43
75051;BME280;63628;47.656;11.310;2022-12-29T05:59:08;94626.00;;;1.61;76.85
75051;BME280;63628;47.656;11.310;2022-12-29T06:01:35;94615.31;;;2.06;81.43
75051;BME280;63628;47.656;11.310;2022-12-29T06:04:02;94605.69;;;2.28;75.35
75051;BME280;63628;47.656;11.310;2022-12-29T06:06:29;94607.50;;;2.49;83.67
75051;BME280;63628;47.656;11.310;2022-12-29T06:08:57;94605.75;;;2.35;82.69
75051;BME280;63628;47.656;11.310;2022-12-29T06:11:23;94601.59;;;2.62;84.88
75051;BME280;63628;47.656;11.310;2022-12-29T06:13:50;94586.56;;;2.64;85.03
75051;BME280;63628;47.656;11.310;2022-12-29T06:16:16;94582.75;;;2.23;79.13
75051;BME280;63628;47.656;11.310;2022-12-29T06:18:43;94579.44;;;2.58;71.88
75051;BME280;63628;47.656;11.310;2022-12-29T06:21:10;94575.84;;;2.59;82.64
75051;BME280;63628;47.656;11.310;2022-12-29T06:23:36;94573.88;;;2.61;84.37
75051;BME280;63628;47.656;11.310;2022-12-29T06:26:04;94578.84;;;2.34;73.11
75051;BME280;63628;47.656;11.310;2022-12-29T06:28:31;94580.19;;;2.51;83.15
75051;BME280;63628;47.656;11.310;2022-12-29T06:30:57;94575.28;;;2.42;81.79
75051;BME280;63628;47.656;11.310;2022-12-29T06:33:24;94574.94;;;1.51;78.70
75051;BME280;63628;47.656;11.310;2022-12-29T06:35:51;94566.91;;;2.04;83.66
75051;BME280;63628;47.656;11.310;2022-12-29T06:38:17;94561.50;;;1.69;77.29
75051;BME280;63628;47.656;11.310;2022-12-29T06:40:44;94559.75;;;2.12;79.62
75051;BME280;63628;47.656;11.310;2022-12-29T06:43:13;94564.53;;;2.51;84.41
75051;BME280;63628;47.656;11.310;2022-12-29T06:45:39;94566.66;;;2.41;83.74
75051;BME280;63628;47.656;11.310;2022-12-29T06:48:06;94567.19;;;2.58;84.89
75051;BME280;63628;47.656;11.310;2022-12-29T06:50:33;94578.19;;;2.53;84.79
75051;BME280;63628;47.656;11.310;2022-12-29T06:53:00;94572.13;;;2.46;84.16
75051;BME280;63628;47.656;11.310;2022-12-29T06:55:27;94587.91;;;2.60;83.99
75051;BME280;63628;47.656;11.310;2022-12-29T06:57:54;94579.63;;;1.41;76.49
75051;BME280;63628;47.656;11.310;2022-12-29T07:00:23;94583.03;;;1.92;84.85
75051;BME280;63628;47.656;11.310;2022-12-29T07:02:50;94581.38;;;2.49;85.63
75051;BME280;63628;47.656;11.310;2022-12-29T07:05:16;94585.28;;;2.60;85.49
75051;BME280;63628;47.656;11.310;2022-12-29T07:07:43;94587.75;;;2.61;85.42
75051;BME280;63628;47.656;11.310;2022-12-29T07:10:10;94597.50;;;1.44;77.32
75051;BME280;63628;47.656;11.310;2022-12-29T07:12:36;94603.78;;;1.06;79.09
75051;BME280;63628;47.656;11.310;2022-12-29T07:15:03;94603.63;;;1.51;85.58
75051;BME280;63628;47.656;11.310;2022-12-29T07:17:31;94607.19;;;2.37;85.89
75051;BME280;63628;47.656;11.310;2022-12-29T07:19:58;94599.91;;;2.54;85.60
75051;BME280;63628;47.656;11.310;2022-12-29T07:22:24;94607.25;;;2.65;85.79
75051;BME280;63628;47.656;11.310;2022-12-29T07:24:51;94605.31;;;2.74;85.78
75051;BME280;63628;47.656;11.310;2022-12-29T07:27:17;94619.75;;;2.70;85.57
75051;BME280;63628;47.656;11.310;2022-12-29T07:29:44;94621.75;;;2.68;85.40
75051;BME280;63628;47.656;11.310;2022-12-29T07:32:10;94628.19;;;1.93;78.89
75051;BME280;63628;47.656;11.310;2022-12-29T07:34:38;94627.94;;;2.24;85.73
75051;BME280;63628;47.656;11.310;2022-12-29T07:37:06;94627.06;;;2.60;85.68
75051;BME280;63628;47.656;11.310;2022-12-29T07:39:33;94628.53;;;2.62;85.64
75051;BME280;63628;47.656;11.310;2022-12-29T07:41:59;94636.56;;;2.61;84.99
75051;BME280;63628;47.656;11.310;2022-12-29T07:44:30;94636.22;;;2.49;83.17
75051;BME280;63628;47.656;11.310;2022-12-29T07:46:57;94647.69;;;2.12;74.04
75051;BME280;63628;47.656;11.310;2022-12-29T07:49:24;94660.59;;;1.99;79.90
75051;BME280;63628;47.656;11.310;2022-12-29T07:51:53;94662.31;;;2.49;84.93
75051;BME280;63628;47.656;11.310;2022-12-29T07:54:19;94660.09;;;2.46;84.12
75051;BME280;63628;47.656;11.310;2022-12-29T07:56:46;94660.09;;;2.46;84.14
75051;BME280;63628;47.656;11.310;2022-12-29T07:59:13;94673.13;;;2.61;84.95
75051;BME280;63628;47.656;11.310;2022-12-29T08:01:39;94670.94;;;2.64;85.31
75051;BME280;63628;47.656;11.310;2022-12-29T08:04:07;94681.19;;;2.66;85.25
75051;BME280;63628;47.656;11.310;2022-12-29T08:06:34;94692.47;;;2.66;85.51
75051;BME280;63628;47.656;11.310;2022-12-29T08:09:02;94690.66;;;2.67;85.23
75051;BME280;63628;47.656;11.310;2022-12-29T08:11:38;94694.06;;;2.67;84.86
75051;BME280;63628;47.656;11.310;2022-12-29T08:14:06;94698.31;;;2.68;85.37
75051;BME280;63628;47.656;11.310;2022-12-29T08:16:33;94690.72;;;2.73;85.56
75051;BME280;63628;47.656;11.310;2022-12-29T08:19:00;94692.66;;;2.50;81.08
75051;BME280;63628;47.656;11.310;2022-12-29T08:21:27;94689.53;;;2.76;73.65
75051;BME280;63628;47.656;11.310;2022-12-29T08:23:54;94700.91;;;2.68;79.51
75051;BME280;63628;47.656;11.310;2022-12-29T08:26:22;94708.56;;;2.70;84.45
75051;BME280;63628;47.656;11.310;2022-12-29T08:28:51;94711.00;;;2.71;85.13
75051;BME280;63628;47.656;11.310;2022-12-29T08:31:18;94712.00;;;2.70;83.51
75051;BME280;63628;47.656;11.310;2022-12-29T08:33:45;94713.97;;;2.68;79.75
75051;BME280;63628;47.656;11.310;2022-12-29T08:36:11;94713.25;;;2.74;83.85
75051;BME280;63628;47.656;11.310;2022-12-29T08:38:38;94722.25;;;2.72;85.19
75051;BME280;63628;47.656;11.310;2022-12-29T08:41:04;94718.47;;;2.74;84.92
75051;BME280;63628;47.656;11.310;2022-12-29T08:43:32;94713.59;;;2.71;84.08
75051;BME280;63628;47.656;11.310;2022-12-29T08:45:59;94720.88;;;2.76;76.18
75051;BME280;63628;47.656;11.310;2022-12-29T08:48:26;94727.84;;;2.69;77.89
75051;BME280;63628;47.656;11.310;2022-12-29T08:50:53;94724.50;;;2.75;83.04
75051;BME280;63628;47.656;11.310;2022-12-29T08:53:20;94718.66;;;2.73;84.29
75051;BME280;63628;47.656;11.310;2022-12-29T08:55:47;94726.72;;;2.78;77.95
75051;BME280;63628;47.656;11.310;2022-12-29T08:58:14;94726.13;;;2.76;83.45
75051;BME280;63628;47.656;11.310;2022-12-29T09:00:42;94723.50;;;2.76;84.57
75051;BME280;63628;47.656;11.310;2022-12-29T09:03:08;94721.81;;;3.11;81.44
75051;BME280;63628;47.656;11.310;2022-12-29T09:05:36;94731.41;;;2.82;84.54
75051;BME280;63628;47.656;11.310;2022-12-29T09:08:03;94735.13;;;2.95;79.84
75051;BME280;63628;47.656;11.310;2022-12-29T09:10:30;94734.31;;;2.94;80.06
75051;BME280;63628;47.656;11.310;2022-12-29T09:12:57;94738.63;;;2.80;84.63
75051;BME280;63628;47.656;11.310;2022-12-29T09:15:23;94739.06;;;2.84;84.57
75051;BME280;63628;47.656;11.310;2022-12-29T09:17:51;94734.63;;;3.27;76.82
75051;BME280;63628;47.656;11.310;2022-12-29T09:20:18;94749.78;;;3.60;78.22
75051;BME280;63628;47.656;11.310;2022-12-29T09:22:46;94740.16;;;4.36;75.28
75051;BME280;63628;47.656;11.310;2022-12-29T09:25:13;94734.75;;;4.44;72.38
75051;BME280;63628;47.656;11.310;2022-12-29T09:27:40;94749.66;;;3.74;78.04
75051;BME280;63628;47.656;11.310;2022-12-29T09:30:09;94748.31;;;3.08;83.09
75051;BME280;63628;47.656;11.310;2022-12-29T09:32:36;94747.09;;;3.04;83.25
75051;BME280;63628;47.656;11.310;2022-12-29T09:35:11;94742.97;;;2.95;84.27
75051;BME280;63628;47.656;11.310;2022-12-29T09:37:38;94742.78;;;2.96;84.07
75051;BME280;63628;47.656;11.310;2022-12-29T09:40:06;94738.56;;;2.95;84.90
75051;BME280;63628;47.656;11.310;2022-12-29T09:42:38;94735.69;;;3.33;86.83
75051;BME280;63628;47.656;11.310;2022-12-29T09:45:11;94727.56;;;6.89;70.19
75051;BME280;63628;47.656;11.310;2022-12-29T09:47:41;94724.41;;;4.90;74.27
75051;BME280;63628;47.656;11.310;2022-12-29T09:50:17;94715.19;;;3.36;82.02
75051;BME280;63628;47.656;11.310;2022-12-29T09:52:49;94710.66;;;4.68;79.29
75051;BME280;63628;47.656;11.310;2022-12-29T09:55:19;94696.25;;;7.44;72.24
75051;BME280;63628;47.656;11.310;2022-12-29T09:57:50;94701.25;;;5.00;74.69
75051;BME280;63628;47.656;11.310;2022-12-29T10:00:21;94705.69;;;3.57;81.46
75051;BME280;63628;47.656;11.310;2022-12-29T10:02:52;94695.91;;;6.26;74.69
75051;BME280;63628;47.656;11.310;2022-12-29T10:05:31;94698.00;;;5.71;74.97
75051;BME280;63628;47.656;11.310;2022-12-29T10:08:11;94694.94;;;4.14;78.61
75051;BME280;63628;47.656;11.310;2022-12-29T10:10:48;94701.56;;;3.41;82.49
75051;BME280;63628;47.656;11.310;2022-12-29T10:13:28;94702.81;;;3.24;83.87
75051;BME280;63628;47.656;11.310;2022-12-29T10:16:02;94692.53;;;3.22;84.13
75051;BME280;63628;47.656;11.310;2022-12-29T10:18:43;94693.72;;;3.19;84.06
75051;BME280;63628;47.656;11.310;2022-12-29T10:21:25;94701.19;;;3.23;84.57
75051;BME280;63628;47.656;11.310;2022-12-29T10:23:53;94688.16;;;5.47;70.96
75051;BME280;63628;47.656;11.310;2022-12-29T10:26:23;94677.53;;;7.52;66.07
75051;BME280;63628;47.656;11.310;2022-12-29T10:28:55;94678.16;;;7.72;59.68
75051;BME280;63628;47.656;11.310;2022-12-29T10:31:33;94692.63;;;7.88;60.59
75051;BME280;63628;47.656;11.310;2022-12-29T10:34:09;94686.88;;;8.34;58.84
75051;BME280;63628;47.656;11.310;2022-12-29T10:36:43;94677.13;;;8.53;59.31
75051;BME280;63628;47.656;11.310;2022-12-29T10:39:16;94687.16;;;8.44;58.79
75051;BME280;63628;47.656;11.310;2022-12-29T10:41:49;94680.78;;;8.15;58.88
75051;BME280;63628;47.656;11.310;2022-12-29T10:44:17;94677.63;;;8.25;56.92
75051;BME280;63628;47.656;11.310;2022-12-29T10:46:52;94668.44;;;7.73;56.95
75051;BME280;63628;47.656;11.310;2022-12-29T10:49:20;94656.47;;;7.95;50.96
75051;BME280;63628;47.656;11.310;2022-12-29T10:51:50;94657.53;;;6.94;62.31
75051;BME280;63628;47.656;11.310;2022-12-29T10:54:21;94661.09;;;5.20;71.46
75051;BME280;63628;47.656;11.310;2022-12-29T10:56:51;94655.50;;;4.29;78.15
75051;BME280;63628;47.656;11.310;2022-12-29T10:59:21;94660.28;;;4.05;79.59
75051;BME280;63628;47.656;11.310;2022-12-29T11:01:55;94649.19;;;4.03;80.21
75051;BME280;63628;47.656;11.310;2022-12-29T11:04:41;94632.50;;;6.54;62.08
75051;BME280;63628;47.656;11.310;2022-12-29T11:07:11;94625.28;;;5.78;65.03
75051;BME280;63628;47.656;11.310;2022-12-29T11:09:43;94626.81;;;5.21;72.18
75051;BME280;63628;47.656;11.310;2022-12-29T11:12:21;94620.75;;;4.61;76.02
75051;BME280;63628;47.656;11.310;2022-12-29T11:15:01;94610.41;;;6.93;60.57
75051;BME280;63628;47.656;11.310;2022-12-29T11:17:28;94611.09;;;4.82;72.20
75051;BME280;63628;47.656;11.310;2022-12-29T11:19:55;94605.69;;;5.81;67.59
75051;BME280;63628;47.656;11.310;2022-12-29T11:22:25;94614.69;;;7.12;58.08
75051;BME280;63628;47.656;11.310;2022-12-29T11:24:54;94604.72;;;5.68;69.83
75051;BME280;63628;47.656;11.310;2022-12-29T11:27:30;94620.91;;;5.52;67.09
75051;BME280;63628;47.656;11.310;2022-12-29T11:29:59;94606.97;;;6.92;64.95
75051;BME280;63628;47.656;11.310;2022-12-29T11:32:26;94616.84;;;4.44;77.66
75051;BME280;63628;47.656;11.310;2022-12-29T11:34:55;94620.59;;;4.08;81.18
75051;BME280;63628;47.656;11.310;2022-12-29T11:37:28;94602.47;;;4.07;81.43
75051;BME280;63628;47.656;11.310;2022-12-29T11:39:57;94602.88;;;4.10;80.33
75051;BME280;63628;47.656;11.310;2022-12-29T11:42:29;94596.41;;;4.00;81.87
75051;BME280;63628;47.656;11.310;2022-12-29T11:45:05;94579.94;;;4.12;81.39
75051;BME280;63628;47.656;11.310;2022-12-29T11:47:36;94577.88;;;4.01;82.34
75051;BME280;63628;47.656;11.310;2022-12-29T11:50:06;94576.69;;;4.10;80.80
75051;BME280;63628;47.656;11.310;2022-12-29T11:52:36;94576.91;;;4.16;82.02
75051;BME280;63628;47.656;11.310;2022-12-29T11:55:17;94576.78;;;5.23;75.96
75051;BME280;63628;47.656;11.310;2022-12-29T11:57:45;94574.22;;;6.25;70.89
75051;BME280;63628;47.656;11.310;2022-12-29T12:00:16;94581.50;;;5.72;74.89
75051;BME280;63628;47.656;11.310;2022-12-29T12:02:51;94567.13;;;6.64;73.56
75051;BME280;63628;47.656;11.310;2022-12-29T12:05:28;94567.91;;;5.88;72.14
75051;BME280;63628;47.656;11.310;2022-12-29T12:08:05;94556.59;;;6.32;71.17
75051;BME280;63628;47.656;11.310;2022-12-29T12:10:39;94555.00;;;4.96;76.43
75051;BME280;63628;47.656;11.310;2022-12-29T12:13:18;94561.44;;;5.20;74.92
75051;BME280;63628;47.656;11.310;2022-12-29T12:15:51;94570.94;;;5.21;72.07
75051;BME280;63628;47.656;11.310;2022-12-29T12:18:30;94571.34;;;5.95;70.30
75051;BME280;63628;47.656;11.310;2022-12-29T12:21:04;94564.06;;;6.35;67.36
75051;BME280;63628;47.656;11.310;2022-12-29T12:23:40;94562.00;;;6.06;69.22
75051;BME280;63628;47.656;11.310;2022-12-29T12:26:12;94555.81;;;6.88;58.98
75051;BME280;63628;47.656;11.310;2022-12-29T12:28:48;94558.91;;;7.65;62.62
75051;BME280;63628;47.656;11.310;2022-12-29T12:31:24;94553.81;;;5.89;71.22
75051;BME280;63628;47.656;11.310;2022-12-29T12:33:57;94550.06;;;7.78;60.64
75051;BME280;63628;47.656;11.310;2022-12-29T12:36:43;94564.72;;;6.87;63.50
75051;BME280;63628;47.656;11.310;2022-12-29T12:39:22;94560.56;;;7.23;60.22
75051;BME280;63628;47.656;11.310;2022-12-29T12:42:00;94551.56;;;6.62;61.80
75051;BME280;63628;47.656;11.310;2022-12-29T12:44:36;94545.00;;;7.94;62.46
75051;BME280;63628;47.656;11.310;2022-12-29T12:47:18;94553.06;;;7.02;62.89
75051;BME280;63628;47.656;11.310;2022-12-29T12:50:05;94549.56;;;7.87;61.60
75051;BME280;63628;47.656;11.310;2022-12-29T12:52:44;94540.19;;;8.21;58.44
75051;BME280;63628;47.656;11.310;2022-12-29T12:55:32;94548.53;;;7.88;62.94
75051;BME280;63628;47.656;11.310;2022-12-29T12:58:09;94544.94;;;7.28;67.37
75051;BME280;63628;47.656;11.310;2022-12-29T13:00:45;94542.53;;;7.63;62.47
75051;BME280;63628;47.656;11.310;2022-12-29T13:03:23;94541.81;;;7.13;65.46
75051;BME280;63628;47.656;11.310;2022-12-29T13:06:07;94531.56;;;7.48;61.24
75051;BME280;63628;47.656;11.310;2022-12-29T13:08:57;94521.66;;;8.28;58.06
75051;BME280;63628;47.656;11.310;2022-12-29T13:11:40;94527.00;;;8.21;58.50
75051;BME280;63628;47.656;11.310;2022-12-29T13:14:19;94517.09;;;8.05;58.43
75051;BME280;63628;47.656;11.310;2022-12-29T13:16:52;94521.03;;;7.48;61.07
75051;BME280;63628;47.656;11.310;2022-12-29T13:19:28;94512.16;;;7.97;57.52